Time;durP1;ratioP1;P1;durP2;ratioP2;P2;SDS_P1;SDS_P2;PMS_P1;PMS_P2;Temp;Humidity;BMP_temperature;BMP_pressure;BME280_temperature;BME280_humidity;BME280_pressure;Samples;Min_cycle;Max_cycle;Signal;HPM_P1;HPM_P2
2022/05/30 00:00:07;;;;;;;;;2.00;2.00;;;;;;;;5077496;28;46455;-68
2022/05/30 00:02:33;;;;;;;;;3.00;2.00;;;;;;;;5078815;28;45275;-68
2022/05/30 00:04:59;;;;;;;;;2.00;0.25;;;;;;;;5076820;28;45533;-69
2022/05/30 00:07:24;;;;;;;;;2.00;2.00;;;;;;;;5079215;27;45422;-69
2022/05/30 00:09:49;;;;;;;;;1.00;1.00;;;;;;;;5076933;27;45372;-69
2022/05/30 00:12:15;;;;;;;;;2.00;2.00;;;;;;;;5088625;27;45285;-69
2022/05/30 00:14:40;;;;;;;;;2.00;1.50;;;;;;;;5056051;27;45387;-69
2022/05/30 00:17:05;;;;;;;;;0.00;0.00;;;;;;;;5086730;27;46190;-69
2022/05/30 00:19:31;;;;;;;;;3.00;2.00;;;;;;;;5055942;27;45565;-69
2022/05/30 00:21:56;;;;;;;;;1.75;1.75;;;;;;;;5082261;27;45452;-69
2022/05/30 00:24:22;;;;;;;;;2.00;2.00;;;;;;;;5073562;28;45369;-69
2022/05/30 00:26:47;;;;;;;;;2.50;2.50;;;;;;;;5078674;27;45491;-68
2022/05/30 00:29:12;;;;;;;;;2.50;2.00;;;;;;;;5057097;28;45407;-69
2022/05/30 00:31:38;;;;;;;;;1.75;1.75;;;;;;;;5079128;27;45534;-69
2022/05/30 00:34:03;;;;;;;;;4.50;2.00;;;;;;;;5056766;28;47368;-69
2022/05/30 00:36:28;;;;;;;;;3.50;2.00;;;;;;;;5078877;27;45395;-68
2022/05/30 00:38:55;;;;;;;;;1.25;1.25;;;;;;;;5058391;28;45400;-68
2022/05/30 00:41:21;;;;;;;;;4.00;3.00;;;;;;;;5060369;27;45316;-68
2022/05/30 00:43:46;;;;;;;;;3.00;3.00;;;;;;;;5062018;27;46135;-68
2022/05/30 00:46:18;;;;;;;;;3.00;2.75;;;;;;;;5066573;27;47362;-68
2022/05/30 00:48:57;;;;;;;;;3.00;2.00;;;;;;;;5077643;27;45538;-68
2022/05/30 00:51:27;;;;;;;;;3.75;3.00;;;;;;;;5074616;27;45326;-68
2022/05/30 00:53:54;;;;;;;;;4.00;3.00;;;;;;;;5074600;28;45503;-68
2022/05/30 00:56:20;;;;;;;;;3.75;3.00;;;;;;;;5077865;28;46213;-68
2022/05/30 00:58:47;;;;;;;;;3.00;3.00;;;;;;;;5079074;27;45370;-68
2022/05/30 01:01:13;;;;;;;;;0.00;0.00;;;;;;;;5078677;28;45245;-68
2022/05/30 01:06:32;;;;;;;;;2.00;2.00;;;;;;;;5078607;28;45838;-69
2022/05/30 01:09:08;;;;;;;;;4.25;2.75;;;;;;;;5076113;27;45467;-70
2022/05/30 01:12:06;;;;;;;;;3.00;3.00;;;;;;;;5060216;28;45351;-69
2022/05/30 01:14:32;;;;;;;;;2.75;2.75;;;;;;;;5031282;27;46308;-69
2022/05/30 01:16:58;;;;;;;;;3.00;3.00;;;;;;;;5088483;27;46272;-69
2022/05/30 01:19:42;;;;;;;;;3.75;3.00;;;;;;;;5078986;27;45439;-69
2022/05/30 01:22:07;;;;;;;;;3.25;2.25;;;;;;;;5079803;27;45348;-70
2022/05/30 01:24:50;;;;;;;;;4.50;2.50;;;;;;;;5056926;28;45987;-69
2022/05/30 01:27:25;;;;;;;;;2.25;2.00;;;;;;;;5075864;27;46196;-69
2022/05/30 01:29:54;;;;;;;;;2.75;2.00;;;;;;;;5075121;27;45575;-69
2022/05/30 01:32:20;;;;;;;;;2.50;2.50;;;;;;;;5084109;27;45225;-68
2022/05/30 01:34:45;;;;;;;;;2.75;2.75;;;;;;;;5057704;28;46971;-68
2022/05/30 01:37:11;;;;;;;;;2.50;2.50;;;;;;;;5082092;28;45297;-68
2022/05/30 01:39:36;;;;;;;;;2.00;2.00;;;;;;;;5056971;28;45368;-68
2022/05/30 01:42:01;;;;;;;;;3.00;2.00;;;;;;;;5081890;27;45393;-68
2022/05/30 01:44:27;;;;;;;;;2.00;2.00;;;;;;;;5074756;27;45430;-69
2022/05/30 01:46:52;;;;;;;;;3.00;3.00;;;;;;;;5087925;27;47237;-68
2022/05/30 01:49:17;;;;;;;;;3.75;2.50;;;;;;;;5077443;27;45376;-68
2022/05/30 01:51:42;;;;;;;;;2.00;2.00;;;;;;;;5081480;27;45411;-68
2022/05/30 01:54:08;;;;;;;;;6.50;3.25;;;;;;;;5085729;27;45462;-68
2022/05/30 01:56:33;;;;;;;;;2.50;2.50;;;;;;;;5089821;27;45423;-68
2022/05/30 01:58:58;;;;;;;;;2.00;2.00;;;;;;;;5080267;27;45442;-68
2022/05/30 02:01:26;;;;;;;;;2.00;2.00;;;;;;;;5090574;27;45409;-68
2022/05/30 02:03:51;;;;;;;;;3.00;3.00;;;;;;;;5078777;27;45335;-68
2022/05/30 02:06:17;;;;;;;;;3.00;3.00;;;;;;;;5082524;27;47037;-68
2022/05/30 02:08:42;;;;;;;;;4.25;3.00;;;;;;;;5080666;27;45259;-68
2022/05/30 02:11:08;;;;;;;;;3.00;3.00;;;;;;;;5068291;28;45363;-68
2022/05/30 02:13:34;;;;;;;;;3.50;3.00;;;;;;;;5058656;28;46895;-68
2022/05/30 02:18:44;;;;;;;;;3.50;2.75;;;;;;;;5074986;27;45221;-69
2022/05/30 02:21:10;;;;;;;;;7.50;5.00;;;;;;;;5063292;28;45253;-68
2022/05/30 02:23:35;;;;;;;;;6.00;3.00;;;;;;;;5056500;28;46063;-68
2022/05/30 02:26:00;;;;;;;;;4.00;3.00;;;;;;;;5081380;27;46181;-68
2022/05/30 02:28:26;;;;;;;;;4.25;4.25;;;;;;;;5086682;27;45221;-68
2022/05/30 02:30:51;;;;;;;;;7.75;3.50;;;;;;;;5077451;28;45336;-68
2022/05/30 02:38:44;;;;;;;;;6.00;4.50;;;;;;;;5071030;28;45257;-68
2022/05/30 02:41:10;;;;;;;;;4.75;2.50;;;;;;;;5082846;27;45600;-68
2022/05/30 02:43:35;;;;;;;;;4.75;3.75;;;;;;;;5078809;27;45473;-68
2022/05/30 02:46:00;;;;;;;;;5.00;5.00;;;;;;;;5080768;27;46523;-68
2022/05/30 02:48:26;;;;;;;;;4.50;2.50;;;;;;;;5078211;27;45267;-68
2022/05/30 02:50:51;;;;;;;;;6.75;4.00;;;;;;;;5080829;27;45285;-68
2022/05/30 02:53:16;;;;;;;;;5.00;4.00;;;;;;;;5078206;27;45580;-69
2022/05/30 02:55:41;;;;;;;;;5.25;4.25;;;;;;;;5087162;27;46245;-68
2022/05/30 02:58:06;;;;;;;;;5.75;4.00;;;;;;;;5066925;27;45269;-68
2022/05/30 03:00:32;;;;;;;;;4.75;2.00;;;;;;;;5073238;28;45262;-68
2022/05/30 03:02:57;;;;;;;;;4.00;4.00;;;;;;;;5082146;27;45528;-70
2022/05/30 03:05:22;;;;;;;;;5.50;3.50;;;;;;;;5077801;27;46505;-68
2022/05/30 03:07:48;;;;;;;;;6.00;4.75;;;;;;;;5078101;27;45461;-69
2022/05/30 03:10:13;;;;;;;;;3.25;3.25;;;;;;;;5056092;28;45410;-68
2022/05/30 03:12:38;;;;;;;;;4.75;3.25;;;;;;;;5080262;27;47198;-69
2022/05/30 03:15:03;;;;;;;;;5.00;4.00;;;;;;;;5056936;28;47225;-70
2022/05/30 03:17:29;;;;;;;;;4.00;3.00;;;;;;;;5081916;27;45284;-69
2022/05/30 03:19:54;;;;;;;;;8.00;3.00;;;;;;;;5074588;27;45380;-69
2022/05/30 03:22:20;;;;;;;;;5.00;5.00;;;;;;;;5080219;27;45314;-69
2022/05/30 03:24:45;;;;;;;;;5.75;4.00;;;;;;;;5072868;27;46046;-69
2022/05/30 03:27:10;;;;;;;;;4.00;4.00;;;;;;;;5080148;28;45334;-69
2022/05/30 03:29:35;;;;;;;;;7.75;5.00;;;;;;;;5073828;27;45414;-70
2022/05/30 03:32:01;;;;;;;;;3.50;3.50;;;;;;;;5080602;27;45354;-69
2022/05/30 03:34:26;;;;;;;;;5.75;3.00;;;;;;;;5073386;27;45234;-70
2022/05/30 03:36:51;;;;;;;;;4.00;4.00;;;;;;;;5089516;27;45346;-70
2022/05/30 03:39:16;;;;;;;;;6.75;5.00;;;;;;;;5078858;27;45521;-69
2022/05/30 03:41:41;;;;;;;;;5.00;5.00;;;;;;;;5083198;27;45705;-70
2022/05/30 03:44:07;;;;;;;;;7.00;5.00;;;;;;;;5077443;27;46689;-69
2022/05/30 03:46:32;;;;;;;;;7.75;5.00;;;;;;;;5077157;27;45377;-69
2022/05/30 03:48:58;;;;;;;;;7.25;5.00;;;;;;;;5076200;27;45435;-70
2022/05/30 03:51:23;;;;;;;;;5.00;5.00;;;;;;;;5063736;28;46060;-70
2022/05/30 03:53:49;;;;;;;;;7.50;5.75;;;;;;;;5084421;27;45294;-69
2022/05/30 03:56:15;;;;;;;;;5.75;5.00;;;;;;;;5080558;27;45309;-69
2022/05/30 03:58:40;;;;;;;;;10.00;6.00;;;;;;;;5075191;27;45340;-69
2022/05/30 04:01:06;;;;;;;;;9.25;7.00;;;;;;;;5077984;28;45288;-70
2022/05/30 04:03:31;;;;;;;;;9.00;6.00;;;;;;;;5076919;28;46398;-70
2022/05/30 04:05:56;;;;;;;;;4.75;3.75;;;;;;;;5076826;27;45275;-70
2022/05/30 04:08:22;;;;;;;;;6.50;5.00;;;;;;;;5075035;28;45443;-69
2022/05/30 04:10:47;;;;;;;;;5.50;5.50;;;;;;;;5079624;27;45448;-69
2022/05/30 04:13:12;;;;;;;;;6.50;5.00;;;;;;;;5075698;27;45653;-70
2022/05/30 04:15:38;;;;;;;;;8.00;5.50;;;;;;;;5074479;27;45205;-69
2022/05/30 04:18:03;;;;;;;;;5.50;4.25;;;;;;;;5077346;27;45630;-69
2022/05/30 04:20:29;;;;;;;;;5.00;5.00;;;;;;;;5074688;27;45401;-70
2022/05/30 04:22:54;;;;;;;;;6.75;5.25;;;;;;;;5078194;27;46304;-70
2022/05/30 04:25:19;;;;;;;;;4.50;4.50;;;;;;;;5074866;28;45429;-70
2022/05/30 04:27:45;;;;;;;;;4.75;4.75;;;;;;;;5079917;28;45806;-70
2022/05/30 04:30:11;;;;;;;;;6.25;3.75;;;;;;;;5074763;28;45466;-70
2022/05/30 04:32:36;;;;;;;;;7.50;5.50;;;;;;;;5060194;28;48176;-69
2022/05/30 04:35:02;;;;;;;;;5.00;5.00;;;;;;;;5058158;28;45385;-69
2022/05/30 04:37:28;;;;;;;;;5.00;4.00;;;;;;;;5079223;27;45372;-69
2022/05/30 04:39:53;;;;;;;;;3.00;3.00;;;;;;;;5076693;27;45369;-69
2022/05/30 04:42:18;;;;;;;;;4.25;4.25;;;;;;;;5078641;27;46170;-69
2022/05/30 04:44:43;;;;;;;;;6.25;4.00;;;;;;;;5057100;28;45343;-69
2022/05/30 04:47:11;;;;;;;;;4.25;4.25;;;;;;;;5077284;27;45394;-69
2022/05/30 04:49:36;;;;;;;;;4.00;4.00;;;;;;;;5066415;27;46208;-69
2022/05/30 04:52:02;;;;;;;;;5.00;5.00;;;;;;;;5091327;27;45615;-69
2022/05/30 04:54:27;;;;;;;;;4.00;4.00;;;;;;;;5080387;27;45447;-70
2022/05/30 04:56:53;;;;;;;;;6.25;4.00;;;;;;;;5083626;27;45503;-69
2022/05/30 04:59:18;;;;;;;;;6.75;6.50;;;;;;;;5086035;27;45368;-69
2022/05/30 05:01:44;;;;;;;;;7.00;5.25;;;;;;;;5065834;28;47067;-69
2022/05/30 05:04:11;;;;;;;;;9.00;8.75;;;;;;;;5081534;27;45923;-70
2022/05/30 05:06:37;;;;;;;;;5.75;5.75;;;;;;;;5092096;27;45324;-69
2022/05/30 05:09:18;;;;;;;;;6.00;6.00;;;;;;;;5077728;27;45307;-70
2022/05/30 05:11:44;;;;;;;;;9.25;4.75;;;;;;;;5064814;28;47285;-69
2022/05/30 05:14:09;;;;;;;;;7.00;5.50;;;;;;;;5057574;28;45617;-69
2022/05/30 05:16:34;;;;;;;;;5.50;2.75;;;;;;;;5083385;28;45406;-69
2022/05/30 05:19:00;;;;;;;;;5.00;5.00;;;;;;;;5075127;27;45453;-69
2022/05/30 05:21:27;;;;;;;;;6.00;6.00;;;;;;;;5082045;27;46051;-70
2022/05/30 05:23:52;;;;;;;;;5.75;4.25;;;;;;;;5058344;28;45383;-69
2022/05/30 05:26:18;;;;;;;;;6.25;4.00;;;;;;;;5081885;27;45343;-69
2022/05/30 05:28:44;;;;;;;;;7.75;4.00;;;;;;;;5075421;27;45525;-69
2022/05/30 05:31:11;;;;;;;;;12.00;5.25;;;;;;;;5081870;27;45304;-69
2022/05/30 05:33:36;;;;;;;;;11.00;7.75;;;;;;;;5057578;28;45399;-69
2022/05/30 05:36:02;;;;;;;;;9.50;9.25;;;;;;;;5060682;28;45342;-69
2022/05/30 05:38:27;;;;;;;;;6.00;6.00;;;;;;;;5092321;27;45348;-70
2022/05/30 05:40:52;;;;;;;;;10.25;6.25;;;;;;;;5064844;28;48221;-70
2022/05/30 05:43:18;;;;;;;;;7.75;5.50;;;;;;;;5059192;28;45243;-70
2022/05/30 05:45:44;;;;;;;;;12.00;6.25;;;;;;;;5079766;27;45328;-70
2022/05/30 05:48:09;;;;;;;;;5.50;5.50;;;;;;;;5078998;27;45443;-70
2022/05/30 05:50:38;;;;;;;;;5.50;4.25;;;;;;;;5079685;28;45311;-70
2022/05/30 05:53:04;;;;;;;;;7.25;7.25;;;;;;;;5081098;27;45383;-69
2022/05/30 05:55:29;;;;;;;;;11.25;6.00;;;;;;;;5083509;27;45415;-69
2022/05/30 05:57:54;;;;;;;;;5.50;5.50;;;;;;;;5079796;27;45259;-70
2022/05/30 06:00:19;;;;;;;;;10.75;7.00;;;;;;;;5056138;28;47009;-69
2022/05/30 06:02:45;;;;;;;;;9.25;6.50;;;;;;;;5080078;27;45210;-69
2022/05/30 06:05:10;;;;;;;;;9.00;7.25;;;;;;;;5072854;27;45243;-69
2022/05/30 06:07:36;;;;;;;;;7.50;6.00;;;;;;;;5092557;27;45241;-69
2022/05/30 06:10:02;;;;;;;;;6.50;5.50;;;;;;;;5076152;27;45380;-69
2022/05/30 06:12:27;;;;;;;;;6.75;5.50;;;;;;;;5097493;27;45311;-70
2022/05/30 06:14:53;;;;;;;;;9.50;5.50;;;;;;;;5089763;27;45327;-69
2022/05/30 06:17:18;;;;;;;;;9.50;7.00;;;;;;;;5062561;28;45952;-69
2022/05/30 06:19:45;;;;;;;;;6.00;4.75;;;;;;;;5056000;28;48590;-69
2022/05/30 06:22:10;;;;;;;;;13.00;7.25;;;;;;;;5082467;27;45295;-69
2022/05/30 06:24:35;;;;;;;;;9.25;9.00;;;;;;;;5057934;28;45654;-69
2022/05/30 06:27:02;;;;;;;;;10.00;6.00;;;;;;;;5062070;27;45991;-69
2022/05/30 06:29:27;;;;;;;;;5.00;4.25;;;;;;;;5074040;28;45658;-69
2022/05/30 06:31:52;;;;;;;;;9.75;5.25;;;;;;;;5074477;27;45351;-69
2022/05/30 06:34:17;;;;;;;;;6.25;5.75;;;;;;;;5075690;27;45419;-69
2022/05/30 06:36:42;;;;;;;;;7.50;5.00;;;;;;;;5082007;27;45544;-69
2022/05/30 06:39:08;;;;;;;;;7.00;5.00;;;;;;;;5076509;27;45660;-70
2022/05/30 06:41:33;;;;;;;;;7.25;6.00;;;;;;;;5081300;27;45462;-70
2022/05/30 06:44:04;;;;;;;;;6.75;5.00;;;;;;;;5078107;27;45511;-69
2022/05/30 06:46:30;;;;;;;;;4.25;4.25;;;;;;;;5076668;28;45563;-69
2022/05/30 06:48:56;;;;;;;;;5.75;5.75;;;;;;;;5060340;28;47173;-69
2022/05/30 06:51:22;;;;;;;;;8.00;5.75;;;;;;;;5080588;27;45336;-71
2022/05/30 06:53:47;;;;;;;;;3.50;3.50;;;;;;;;5059392;28;45324;-69
2022/05/30 06:56:20;;;;;;;;;7.50;5.50;;;;;;;;5062759;27;47382;-69
2022/05/30 06:58:46;;;;;;;;;4.00;4.00;;;;;;;;5078338;27;47650;-71
2022/05/30 07:01:11;;;;;;;;;9.67;4.00;;;;;;;;5082175;27;45339;-68
2022/05/30 07:03:37;;;;;;;;;5.67;5.67;;;;;;;;5079008;27;45330;-69
2022/05/30 07:06:10;;;;;;;;;5.67;4.00;;;;;;;;5080355;28;45015;-69
2022/05/30 07:08:36;;;;;;;;;7.00;4.67;;;;;;;;5057081;28;47069;-68
2022/05/30 07:11:01;;;;;;;;;6.33;5.00;;;;;;;;5065481;27;45499;-69
2022/05/30 07:13:27;;;;;;;;;8.00;7.00;;;;;;;;5086471;27;45371;-68
2022/05/30 07:15:52;;;;;;;;;10.00;7.33;;;;;;;;5055788;28;47038;-69
2022/05/30 07:18:18;;;;;;;;;8.00;7.00;;;;;;;;5077535;27;45341;-69
2022/05/30 07:20:44;;;;;;;;;2.67;2.00;;;;;;;;5062449;28;45374;-69
2022/05/30 07:23:10;;;;;;;;;5.33;4.00;;;;;;;;5060413;28;45356;-69
2022/05/30 07:25:36;;;;;;;;;7.33;6.33;;;;;;;;5075522;27;45556;-69
2022/05/30 07:28:02;;;;;;;;;5.00;5.00;;;;;;;;5080926;27;45519;-68
2022/05/30 07:30:27;;;;;;;;;7.33;6.33;;;;;;;;5075385;28;45268;-70
2022/05/30 07:32:54;;;;;;;;;6.67;4.00;;;;;;;;5078046;27;45335;-70
2022/05/30 07:35:19;;;;;;;;;6.33;5.00;;;;;;;;5055730;28;47178;-68
2022/05/30 07:37:44;;;;;;;;;6.67;4.67;;;;;;;;5089303;27;45534;-69
2022/05/30 07:40:10;;;;;;;;;3.33;3.33;;;;;;;;5074312;27;45229;-68
2022/05/30 07:42:35;;;;;;;;;5.67;5.67;;;;;;;;5089593;27;45402;-67
2022/05/30 07:45:00;;;;;;;;;4.00;4.00;;;;;;;;5075808;27;45343;-68
2022/05/30 07:47:27;;;;;;;;;4.33;3.67;;;;;;;;5079784;27;45478;-69
2022/05/30 07:49:53;;;;;;;;;7.33;6.00;;;;;;;;5066319;27;45871;-69
2022/05/30 07:52:18;;;;;;;;;5.00;4.33;;;;;;;;5061528;28;45241;-69
2022/05/30 07:54:43;;;;;;;;;4.67;4.00;;;;;;;;5073946;27;45246;-69
2022/05/30 07:57:10;;;;;;;;;2.67;2.67;;;;;;;;5079466;28;45902;-69
2022/05/30 07:59:36;;;;;;;;;4.00;2.00;;;;;;;;5075376;27;45422;-68
2022/05/30 08:02:01;;;;;;;;;3.00;2.33;;;;;;;;5079450;27;45470;-69
2022/05/30 08:04:26;;;;;;;;;2.33;1.00;;;;;;;;5073337;27;45291;-69
2022/05/30 08:06:52;;;;;;;;;2.00;2.00;;;;;;;;5079822;28;45243;-69
2022/05/30 08:09:17;;;;;;;;;3.33;3.33;;;;;;;;5073823;27;45339;-69
2022/05/30 08:11:43;;;;;;;;;1.33;1.33;;;;;;;;5067965;27;45477;-69
2022/05/30 08:14:08;;;;;;;;;3.33;2.00;;;;;;;;5083320;27;45276;-69
2022/05/30 08:16:37;;;;;;;;;2.67;2.67;;;;;;;;5088175;27;46136;-69
2022/05/30 08:19:03;;;;;;;;;1.33;1.33;;;;;;;;5075720;27;45508;-69
2022/05/30 08:21:28;;;;;;;;;3.00;2.00;;;;;;;;5079850;27;45396;-69
2022/05/30 08:23:53;;;;;;;;;4.33;2.67;;;;;;;;5072194;28;45476;-69
2022/05/30 08:26:18;;;;;;;;;4.67;3.00;;;;;;;;5059890;27;48353;-68
2022/05/30 08:28:44;;;;;;;;;5.00;2.00;;;;;;;;5054974;28;45300;-68
2022/05/30 08:31:10;;;;;;;;;3.00;2.00;;;;;;;;5077206;28;45306;-69
2022/05/30 08:33:35;;;;;;;;;2.00;1.00;;;;;;;;5055508;28;45346;-69
2022/05/30 08:36:03;;;;;;;;;2.67;2.67;;;;;;;;5058130;28;47127;-69
2022/05/30 08:38:33;;;;;;;;;3.00;3.00;;;;;;;;5076771;27;45233;-69
2022/05/30 08:43:43;;;;;;;;;2.33;1.00;;;;;;;;5088192;27;45501;-69
2022/05/30 08:46:09;;;;;;;;;3.67;2.00;;;;;;;;5058192;27;47415;-69
2022/05/30 08:48:37;;;;;;;;;1.50;0.75;;;;;;;;5082219;27;44800;-69
2022/05/30 08:51:11;;;;;;;;;1.25;1.25;;;;;;;;5093839;27;45285;-70
2022/05/30 08:53:45;;;;;;;;;2.75;1.75;;;;;;;;5073220;27;46342;-69
2022/05/30 08:56:16;;;;;;;;;4.00;2.00;;;;;;;;5074210;27;48119;-69
2022/05/30 08:58:41;;;;;;;;;2.50;2.00;;;;;;;;5071587;27;45456;-69
2022/05/30 09:01:13;;;;;;;;;1.00;1.00;;;;;;;;5077096;27;45346;-69
2022/05/30 09:03:41;;;;;;;;;1.75;1.75;;;;;;;;5089991;27;45218;-69
2022/05/30 09:06:22;;;;;;;;;1.25;1.25;;;;;;;;5094261;27;45508;-68
2022/05/30 09:08:56;;;;;;;;;3.00;1.75;;;;;;;;5087321;27;45481;-69
2022/05/30 09:11:53;;;;;;;;;1.75;1.75;;;;;;;;5092768;27;45252;-69
2022/05/30 09:14:22;;;;;;;;;1.25;1.25;;;;;;;;5043968;27;45252;-69
2022/05/30 09:16:50;;;;;;;;;2.00;1.00;;;;;;;;5091681;27;46399;-69
2022/05/30 09:19:20;;;;;;;;;1.25;1.25;;;;;;;;5078252;27;45359;-69
2022/05/30 09:21:46;;;;;;;;;3.75;1.00;;;;;;;;5078644;28;45682;-69
2022/05/30 09:24:13;;;;;;;;;0.75;0.75;;;;;;;;5071456;27;45464;-69
2022/05/30 09:26:40;;;;;;;;;1.00;1.00;;;;;;;;5078290;27;45316;-68
2022/05/30 09:29:08;;;;;;;;;2.00;0.75;;;;;;;;5071761;27;45304;-68
2022/05/30 09:31:52;;;;;;;;;3.00;1.00;;;;;;;;5078745;28;45296;-69
2022/05/30 09:34:32;;;;;;;;;0.00;0.00;;;;;;;;5071551;27;45589;-69
2022/05/30 09:36:58;;;;;;;;;0.75;0.75;;;;;;;;5072928;27;47546;-69
2022/05/30 09:39:24;;;;;;;;;0.75;0.75;;;;;;;;5060243;28;45355;-69
2022/05/30 09:41:55;;;;;;;;;1.00;1.00;;;;;;;;5063207;28;45332;-68
2022/05/30 09:44:26;;;;;;;;;0.00;0.00;;;;;;;;5051488;27;47109;-68
2022/05/30 09:46:57;;;;;;;;;4.25;0.75;;;;;;;;5078579;27;46388;-69
2022/05/30 09:49:22;;;;;;;;;0.80;0.80;;;;;;;;5078017;27;45335;-69
2022/05/30 09:51:50;;;;;;;;;1.75;0.00;;;;;;;;5081609;27;45473;-66
2022/05/30 09:54:24;;;;;;;;;1.00;1.00;;;;;;;;5085650;27;45631;-68
2022/05/30 09:56:51;;;;;;;;;0.00;0.00;;;;;;;;5093330;27;46677;-69
2022/05/30 09:59:38;;;;;;;;;1.00;1.00;;;;;;;;5067596;27;45383;-69
2022/05/30 10:02:15;;;;;;;;;1.00;1.00;;;;;;;;5063999;28;45432;-68
2022/05/30 10:04:41;;;;;;;;;0.25;0.25;;;;;;;;5061565;28;46092;-68
2022/05/30 10:07:17;;;;;;;;;0.25;0.25;;;;;;;;5080888;27;46161;-68
2022/05/30 10:10:03;;;;;;;;;0.80;0.80;;;;;;;;5078044;28;45478;-68
2022/05/30 10:12:38;;;;;;;;;0.20;0.00;;;;;;;;5085994;27;45301;-68
2022/05/30 10:15:23;;;;;;;;;2.00;1.00;;;;;;;;5077672;27;45644;-68
2022/05/30 10:17:48;;;;;;;;;1.40;0.00;;;;;;;;5075392;27;45999;-68
2022/05/30 10:20:14;;;;;;;;;1.00;1.00;;;;;;;;5057700;28;45243;-68
2022/05/30 10:28:51;;;;;;;;;0.80;0.00;;;;;;;;5072722;28;45859;-70
2022/05/30 10:31:16;;;;;;;;;1.60;0.20;;;;;;;;5069365;28;45398;-68
2022/05/30 10:34:00;;;;;;;;;1.00;1.00;;;;;;;;5081378;27;45560;-68
2022/05/30 10:36:44;;;;;;;;;0.75;0.75;;;;;;;;5095230;27;45230;-68
2022/05/30 10:39:11;;;;;;;;;2.00;2.00;;;;;;;;5079964;27;45370;-68
2022/05/30 10:41:45;;;;;;;;;0.80;0.80;;;;;;;;5080356;27;45283;-69
2022/05/30 10:44:14;;;;;;;;;0.40;0.40;;;;;;;;5078244;28;46569;-69
2022/05/30 10:46:55;;;;;;;;;5.00;5.00;;;;;;;;5091203;27;45479;-68
2022/05/30 10:49:21;;;;;;;;;0.40;0.40;;;;;;;;5082261;27;45478;-69
2022/05/30 10:52:11;;;;;;;;;2.00;1.20;;;;;;;;5084649;27;45466;-68
2022/05/30 10:54:43;;;;;;;;;0.20;0.20;;;;;;;;5080939;27;48152;-68
2022/05/30 10:57:08;;;;;;;;;4.60;4.60;;;;;;;;5080152;27;45208;-69
2022/05/30 10:59:42;;;;;;;;;6.75;6.25;;;;;;;;5078580;27;45776;-68
2022/05/30 11:02:27;;;;;;;;;0.80;0.40;;;;;;;;5077578;27;45282;-68
2022/05/30 11:05:07;;;;;;;;;0.80;0.80;;;;;;;;5076950;27;45485;-68
2022/05/30 11:07:32;;;;;;;;;0.80;0.80;;;;;;;;5080934;28;45686;-69
2022/05/30 11:10:24;;;;;;;;;1.00;1.00;;;;;;;;5055801;28;47511;-69
2022/05/30 11:12:59;;;;;;;;;0.00;0.00;;;;;;;;5048018;28;45492;-70
2022/05/30 11:15:45;;;;;;;;;1.40;1.40;;;;;;;;5057694;28;45261;-68
2022/05/30 11:18:20;;;;;;;;;2.20;0.80;;;;;;;;5074007;27;45327;-69
2022/05/30 11:20:54;;;;;;;;;0.40;0.40;;;;;;;;5076336;27;45300;-69
2022/05/30 11:23:20;;;;;;;;;0.00;0.00;;;;;;;;5065233;27;45313;-69
2022/05/30 11:25:51;;;;;;;;;1.00;1.00;;;;;;;;5073585;27;45239;-69
2022/05/30 11:28:16;;;;;;;;;0.50;0.50;;;;;;;;5070211;28;46167;-68
2022/05/30 11:30:51;;;;;;;;;2.50;0.50;;;;;;;;5060603;28;47320;-69
2022/05/30 11:33:16;;;;;;;;;0.00;0.00;;;;;;;;5078880;27;45545;-68
2022/05/30 11:35:57;;;;;;;;;1.00;1.00;;;;;;;;5092993;27;45311;-69
2022/05/30 11:38:25;;;;;;;;;1.00;0.25;;;;;;;;5088965;27;45409;-69
2022/05/30 11:41:18;;;;;;;;;2.50;2.50;;;;;;;;5059725;27;47147;-68
2022/05/30 11:43:52;;;;;;;;;1.00;1.00;;;;;;;;5083116;27;45401;-69
2022/05/30 11:46:26;;;;;;;;;2.00;1.00;;;;;;;;5071817;27;45331;-70
2022/05/30 11:48:51;;;;;;;;;1.00;1.00;;;;;;;;5081162;27;45485;-69
2022/05/30 11:51:19;;;;;;;;;1.00;1.00;;;;;;;;5057323;27;48179;-70
2022/05/30 11:53:50;;;;;;;;;2.00;2.00;;;;;;;;5086469;27;45892;-69
2022/05/30 11:56:25;;;;;;;;;1.00;1.00;;;;;;;;5056092;28;45395;-69
2022/05/30 11:58:56;;;;;;;;;0.75;0.75;;;;;;;;5079202;27;45685;-68
2022/05/30 12:01:23;;;;;;;;;2.00;2.00;;;;;;;;5079516;27;45309;-70
2022/05/30 12:04:00;;;;;;;;;1.00;1.00;;;;;;;;5077274;27;45264;-70
2022/05/30 12:06:26;;;;;;;;;2.00;2.00;;;;;;;;5061335;28;45386;-69
2022/05/30 12:09:14;;;;;;;;;1.00;1.00;;;;;;;;5073235;27;45479;-69
2022/05/30 12:11:45;;;;;;;;;3.75;2.25;;;;;;;;5076771;27;45522;-68
2022/05/30 12:14:25;;;;;;;;;3.00;1.00;;;;;;;;5074845;27;45363;-68
2022/05/30 12:16:57;;;;;;;;;0.50;0.50;;;;;;;;5076686;28;45478;-68
2022/05/30 12:25:28;;;;;;;;;1.00;1.00;;;;;;;;5038840;28;45544;-68
2022/05/30 12:27:56;;;;;;;;;1.00;1.00;;;;;;;;5057791;28;45475;-68
2022/05/30 12:30:33;;;;;;;;;0.00;0.00;;;;;;;;5050400;28;47211;-68
2022/05/30 12:32:58;;;;;;;;;0.00;0.00;;;;;;;;5065371;28;48547;-68
2022/05/30 12:35:26;;;;;;;;;0.25;0.25;;;;;;;;5080595;27;45505;-68
2022/05/30 12:37:51;;;;;;;;;0.75;0.75;;;;;;;;5060447;27;45335;-68
2022/05/30 12:40:25;;;;;;;;;0.50;0.50;;;;;;;;5073682;27;45399;-68
2022/05/30 12:43:10;;;;;;;;;0.75;0.75;;;;;;;;5077898;27;45613;-69
2022/05/30 12:45:41;;;;;;;;;0.00;0.00;;;;;;;;5059760;28;45264;-68
2022/05/30 12:48:19;;;;;;;;;1.25;0.75;;;;;;;;5080582;27;45335;-69
2022/05/30 12:50:57;;;;;;;;;0.00;0.00;;;;;;;;5080647;27;45329;-69
2022/05/30 12:53:24;;;;;;;;;0.00;0.00;;;;;;;;5087425;27;46180;-69
2022/05/30 12:55:50;;;;;;;;;1.80;1.80;;;;;;;;5062464;28;45248;-69
2022/05/30 12:58:19;;;;;;;;;2.00;2.00;;;;;;;;5058546;28;45290;-69
2022/05/30 13:00:46;;;;;;;;;0.20;0.20;;;;;;;;5088663;27;45301;-69
2022/05/30 13:03:30;;;;;;;;;1.00;0.80;;;;;;;;5090538;27;46835;-68
2022/05/30 13:06:06;;;;;;;;;1.00;0.40;;;;;;;;5084254;27;45345;-68
2022/05/30 13:08:50;;;;;;;;;1.00;1.00;;;;;;;;5080839;27;45395;-69
2022/05/30 13:11:29;;;;;;;;;3.00;1.00;;;;;;;;5084352;27;45746;-68
2022/05/30 13:13:55;;;;;;;;;0.80;0.80;;;;;;;;5074017;27;46384;-69
2022/05/30 13:16:26;;;;;;;;;3.00;2.00;;;;;;;;5065301;28;45326;-69
2022/05/30 13:18:52;;;;;;;;;2.25;1.00;;;;;;;;5056231;27;45465;-70
2022/05/30 13:21:19;;;;;;;;;0.80;0.80;;;;;;;;5083786;27;45425;-68
2022/05/30 13:23:44;;;;;;;;;1.00;1.00;;;;;;;;5063004;27;47510;-69
2022/05/30 13:26:12;;;;;;;;;2.00;1.00;;;;;;;;5094265;27;45346;-70
2022/05/30 13:28:42;;;;;;;;;0.00;0.00;;;;;;;;5086384;27;45350;-70
2022/05/30 13:31:08;;;;;;;;;3.00;1.00;;;;;;;;5084162;27;45423;-70
2022/05/30 13:33:39;;;;;;;;;0.80;0.80;;;;;;;;5079438;27;45424;-69
2022/05/30 13:36:05;;;;;;;;;1.00;1.00;;;;;;;;5081830;27;45370;-69
2022/05/30 13:38:32;;;;;;;;;1.00;1.00;;;;;;;;5079593;27;45478;-69
2022/05/30 13:41:08;;;;;;;;;1.00;1.00;;;;;;;;5063198;28;46197;-70
2022/05/30 13:43:33;;;;;;;;;0.75;0.75;;;;;;;;5056462;27;48241;-69
2022/05/30 13:45:59;;;;;;;;;1.75;1.75;;;;;;;;5081821;27;45441;-69
2022/05/30 13:48:24;;;;;;;;;0.00;0.00;;;;;;;;5066411;28;45466;-69
2022/05/30 13:50:52;;;;;;;;;2.00;2.00;;;;;;;;5062299;28;47007;-69
2022/05/30 13:53:23;;;;;;;;;1.00;1.00;;;;;;;;5084733;27;45986;-69
2022/05/30 13:55:50;;;;;;;;;0.80;0.80;;;;;;;;5098468;27;45197;-69
2022/05/30 13:58:16;;;;;;;;;1.00;1.00;;;;;;;;5094323;27;45297;-70
2022/05/30 14:00:41;;;;;;;;;4.00;2.00;;;;;;;;5083541;27;45530;-70
2022/05/30 14:03:08;;;;;;;;;0.75;0.75;;;;;;;;5085316;27;46655;-69
2022/05/30 14:05:34;;;;;;;;;0.80;0.80;;;;;;;;5081362;27;45385;-69
2022/05/30 14:08:01;;;;;;;;;0.75;0.75;;;;;;;;5096942;27;45267;-69
2022/05/30 14:10:27;;;;;;;;;1.00;1.00;;;;;;;;5087234;27;45466;-70
2022/05/30 14:12:53;;;;;;;;;1.00;1.00;;;;;;;;5080293;27;45561;-70
2022/05/30 14:15:18;;;;;;;;;0.25;0.25;;;;;;;;5075455;27;45267;-69
2022/05/30 14:17:44;;;;;;;;;1.00;1.00;;;;;;;;5063145;28;45194;-69
2022/05/30 14:20:12;;;;;;;;;3.75;1.00;;;;;;;;5085516;27;45510;-69
2022/05/30 14:22:39;;;;;;;;;1.80;1.40;;;;;;;;5095974;27;45382;-69
2022/05/30 14:25:07;;;;;;;;;1.00;1.00;;;;;;;;5076409;28;45462;-69
2022/05/30 14:27:35;;;;;;;;;0.00;0.00;;;;;;;;5093375;27;45352;-70
2022/05/30 14:30:06;;;;;;;;;2.80;1.40;;;;;;;;5057826;28;46131;-70
2022/05/30 14:32:33;;;;;;;;;1.40;0.20;;;;;;;;5081017;27;45249;-70
2022/05/30 14:35:04;;;;;;;;;1.80;1.80;;;;;;;;5078921;27;45302;-70
2022/05/30 14:37:56;;;;;;;;;2.00;1.80;;;;;;;;5081249;27;45340;-70
2022/05/30 14:40:30;;;;;;;;;0.80;0.80;;;;;;;;5073740;27;45426;-70
2022/05/30 14:42:59;;;;;;;;;1.80;1.80;;;;;;;;5095762;27;45532;-70
2022/05/30 14:45:34;;;;;;;;;1.40;1.40;;;;;;;;5071865;27;45440;-71
2022/05/30 14:48:04;;;;;;;;;0.80;0.80;;;;;;;;5078418;27;45334;-70
2022/05/30 14:50:34;;;;;;;;;0.80;0.80;;;;;;;;5089126;27;45571;-70
2022/05/30 14:53:00;;;;;;;;;0.20;0.20;;;;;;;;5078724;27;45617;-69
2022/05/30 14:55:31;;;;;;;;;1.00;1.00;;;;;;;;5054726;28;45328;-69
2022/05/30 14:57:58;;;;;;;;;1.80;1.20;;;;;;;;5066652;27;45413;-69
2022/05/30 15:00:32;;;;;;;;;0.80;0.80;;;;;;;;5061231;28;46197;-69
2022/05/30 15:05:41;;;;;;;;;1.00;1.00;;;;;;;;5083750;27;45473;-69
2022/05/30 15:08:08;;;;;;;;;0.25;0.25;;;;;;;;5095874;27;46863;-70
2022/05/30 15:10:33;;;;;;;;;3.20;1.00;;;;;;;;5078549;27;45372;-70
2022/05/30 15:12:58;;;;;;;;;1.00;1.00;;;;;;;;5078760;27;45486;-70
2022/05/30 15:15:23;;;;;;;;;1.00;1.00;;;;;;;;5080609;27;45331;-70
2022/05/30 15:17:49;;;;;;;;;1.75;1.75;;;;;;;;5079628;28;45250;-70